Nordic Star — WDC6442 — position and weather

sailwx.info

Track history (hours):
 
Tides and Currents Weather Stations Pressure Air Temp Water Temp Dewpoint Dewpoint Depression Visibility Wind Speed Wind Dir Waves Ship Positions

Nordic Star

Owner: F/V Nordic Star LLC, SEATTLE, WA. More information available from US FCC via Universal Licensing System and Coast Guard Vessel Documentation Center.

Last reported at 2018-Jan-12 07:07 UTC. Time now 2018-Feb-25 23:35 UTC.
Position N 52°01' W 129°22'.
Warning: this ship's position is 44 days out of date.

Length 33 m; draft 3.4 m.

Type: Fishing. MMSI: 367056452.

Date/timePositionNaut miles runAvg speedWind from/ knotsBaromVisibWave heightAir tempDewpointWater temp
2018-Jan-12 07:07N 52°01' W 129°22'1 9.5
2018-Jan-12 06:59N 52°01' W 129°21'10 9.4
2018-Jan-12 05:57N 51°53' W 129°11'5 9.7
2018-Jan-12 05:29N 51°49' W 129°07'5 9.7
2018-Jan-12 05:00N 51°46' W 129°02'5 9.7
2018-Jan-12 04:30N 51°42' W 128°57'5 9.4
2018-Jan-12 04:00N 51°38' W 128°53'5 9.4
2018-Jan-12 03:30N 51°34' W 128°48'5 9.7
2018-Jan-12 03:00N 51°30' W 128°43'5 9.8
2018-Jan-12 02:30N 51°27' W 128°39'5 9.5
2018-Jan-12 02:00N 51°23' W 128°34'5 9.1
2018-Jan-12 01:30N 51°19' W 128°30'5 9.6
2018-Jan-12 01:00N 51°15' W 128°25'510.0
2018-Jan-12 00:30N 51°11' W 128°20'5 9.7
2018-Jan-12 00:00N 51°07' W 128°15'5 9.5
2018-Jan-11 23:30N 51°04' W 128°10'810.1
2018-Jan-11 22:42N 51°01' W 127°58'210.7
2018-Jan-11 22:30N 51°00' W 127°55'10210.1
2018-Jan-11 12:24N 50°21' W 125°27'4 9.4
2018-Jan-11 12:00N 50°17' W 125°25'510.5
2018-Jan-11 11:29N 50°12' W 125°22'510.3
2018-Jan-11 11:00N 50°07' W 125°20'510.5
2018-Jan-11 10:30N 50°03' W 125°15'510.0
2018-Jan-11 10:00N 49°59' W 125°11'4 7.5
2018-Jan-11 09:30N 49°56' W 125°07'4 8.6
2018-Jan-11 08:59N 49°53' W 125°02'4 8.5
2018-Jan-11 08:30N 49°50' W 124°57'4 8.7
2018-Jan-11 08:00N 49°47' W 124°53'5 9.0
2018-Jan-11 07:30N 49°44' W 124°48'5 9.2
2018-Jan-11 07:00N 49°41' W 124°43'5 9.1
2018-Jan-11 06:30N 49°38' W 124°38'4 9.0
2018-Jan-11 06:00N 49°34' W 124°33'5 8.7
2018-Jan-11 05:29N 49°31' W 124°28'4 8.9
2018-Jan-11 05:00N 49°28' W 124°23'510.0
2018-Jan-11 04:30N 49°25' W 124°17'5 9.9
2018-Jan-11 04:01N 49°23' W 124°10'5 9.8
2018-Jan-11 03:31N 49°21' W 124°03'5 9.8
2018-Jan-11 02:59N 49°18' W 123°57'5 9.7
2018-Jan-11 02:30N 49°16' W 123°50'13 9.6
2018-Jan-11 01:08N 49°09' W 123°33'2 9.6
2018-Jan-11 00:58N 49°08' W 123°31'4 9.4
2018-Jan-11 00:30N 49°06' W 123°25'4 8.9
2018-Jan-11 00:00N 49°03' W 123°20'4 8.7
2018-Jan-10 23:30N 49°01' W 123°15'4 8.1
2018-Jan-10 23:00N 48°58' W 123°10'4 8.1
2018-Jan-10 22:30N 48°55' W 123°05'4 8.7
2018-Jan-10 22:00N 48°53' W 123°00'4 8.2
2018-Jan-10 21:30N 48°50' W 122°55'4 8.3
2018-Jan-10 20:58N 48°47' W 122°50'4 8.3
2018-Jan-10 20:30N 48°45' W 122°45'4 8.9
2018-Jan-10 20:00N 48°41' W 122°42'4 8.7
2018-Jan-10 19:30N 48°37' W 122°45'5 9.4
2018-Jan-10 19:00N 48°32' W 122°44'4 7.5
2018-Jan-10 18:30N 48°31' W 122°38'1 2.4
2018-Jan-10 18:00N 48°31' W 122°37'0 0.0
2018-Jan-10 17:30N 48°31' W 122°37'0 0.0
2018-Jan-10 17:00N 48°31' W 122°37'0 0.0
2018-Jan-10 16:30N 48°31' W 122°37'0 0.0
2018-Jan-10 16:00N 48°31' W 122°37'0 0.0
2018-Jan-10 15:30N 48°31' W 122°37'0 0.0
2018-Jan-10 15:00N 48°31' W 122°37'0 0.0
2018-Jan-10 14:30N 48°31' W 122°37'0 0.0
2018-Jan-10 14:00N 48°31' W 122°37'0 0.0
2018-Jan-10 13:30N 48°31' W 122°37'0 0.0
2018-Jan-10 13:00N 48°31' W 122°37'0 0.0
2018-Jan-10 12:30N 48°31' W 122°37'0 0.0
2018-Jan-10 12:00N 48°31' W 122°37'0 0.0
2018-Jan-10 11:30N 48°31' W 122°37'0 0.0
2018-Jan-10 11:00N 48°31' W 122°37'0 0.0
2018-Jan-10 10:30N 48°31' W 122°37'0 0.0
2018-Jan-10 10:00N 48°31' W 122°37'0 0.0
2018-Jan-10 09:30N 48°31' W 122°37'0 0.0
2018-Jan-10 09:00N 48°31' W 122°37'0 0.0
2018-Jan-10 08:30N 48°31' W 122°37'0 0.0
2018-Jan-10 08:00N 48°31' W 122°37'0 0.0
2018-Jan-10 07:30N 48°31' W 122°37'0 0.0
2018-Jan-10 07:00N 48°31' W 122°37'0 0.0
2018-Jan-10 06:30N 48°31' W 122°37'0 0.0
2018-Jan-10 06:00N 48°31' W 122°37'0 0.0
2018-Jan-10 05:30N 48°31' W 122°37'0 0.0
2018-Jan-10 05:00N 48°31' W 122°37'0 0.0
2018-Jan-10 04:30N 48°31' W 122°37'0 0.0
2018-Jan-10 04:00N 48°31' W 122°37'0 0.0
2018-Jan-10 03:30N 48°31' W 122°37'0 0.0
2018-Jan-10 03:00N 48°31' W 122°37'0 0.0
2018-Jan-10 02:30N 48°31' W 122°37'0 0.0
2018-Jan-10 02:00N 48°31' W 122°37'0 0.0
2018-Jan-10 01:30N 48°31' W 122°37'0 0.0
2018-Jan-10 01:00N 48°31' W 122°37'0 0.0
2018-Jan-10 00:30N 48°31' W 122°37'0 0.0
2018-Jan-10 00:00N 48°31' W 122°37'0 0.0
2018-Jan-09 23:30N 48°31' W 122°37'0 0.0
2018-Jan-09 23:00N 48°31' W 122°37'0 0.0
2018-Jan-09 22:30N 48°31' W 122°37'0 0.0
2018-Jan-09 22:00N 48°31' W 122°37'0 0.0
2018-Jan-09 21:30N 48°31' W 122°37'0 0.0
2018-Jan-09 21:00N 48°31' W 122°37'0 0.0
2018-Jan-09 20:30N 48°31' W 122°37'0 0.0
2018-Jan-09 20:00N 48°31' W 122°37'0 0.0
2018-Jan-09 19:30N 48°31' W 122°37'0 0.0
2018-Jan-09 19:00N 48°31' W 122°37'0 0.0
2018-Jan-09 18:30N 48°31' W 122°37'0 0.0
2018-Jan-09 18:00N 48°31' W 122°37'0 0.0
2018-Jan-09 17:30N 48°31' W 122°37'0 0.0
2018-Jan-09 17:00N 48°31' W 122°37'0 0.0
2018-Jan-09 16:30N 48°31' W 122°37'0 0.0
2018-Jan-09 16:00N 48°31' W 122°37'0 0.0
2018-Jan-09 15:30N 48°31' W 122°37'0 0.0
2018-Jan-09 15:00N 48°31' W 122°37'0 0.0
2018-Jan-09 14:30N 48°31' W 122°37'0 0.0
2018-Jan-09 14:00N 48°31' W 122°37'0 0.0
2018-Jan-09 13:30N 48°31' W 122°37'0 0.0
2018-Jan-09 13:00N 48°31' W 122°37'0 0.0
2018-Jan-09 12:30N 48°31' W 122°37'0 0.0
2018-Jan-09 12:00N 48°31' W 122°37'0 0.0
2018-Jan-09 11:30N 48°31' W 122°37'0 0.0
2018-Jan-09 11:00N 48°31' W 122°37'0 0.0
2018-Jan-09 10:30N 48°31' W 122°37'0 0.0
2018-Jan-09 10:00N 48°31' W 122°37'0 0.0
2018-Jan-09 09:30N 48°31' W 122°37'0 0.0
2018-Jan-09 09:00N 48°31' W 122°37'0 0.0
2018-Jan-09 08:30N 48°31' W 122°37'0 0.0
2018-Jan-09 08:00N 48°31' W 122°37'0 0.0
2018-Jan-09 07:30N 48°31' W 122°37'0 0.0
2018-Jan-09 07:00N 48°31' W 122°37'0 0.0
2018-Jan-09 06:30N 48°31' W 122°37'0 0.0
2018-Jan-09 06:00N 48°31' W 122°37'0 0.0
2018-Jan-09 05:30N 48°31' W 122°37'0 0.0
2018-Jan-09 05:00N 48°31' W 122°37'0 0.0
2018-Jan-09 04:30N 48°31' W 122°37'0 0.0
2018-Jan-09 04:00N 48°31' W 122°37'0 0.0
2018-Jan-09 03:30N 48°31' W 122°37'0 0.0
2018-Jan-09 03:00N 48°31' W 122°37'0 0.0
2018-Jan-09 02:30N 48°31' W 122°37'0 0.0
2018-Jan-09 02:00N 48°31' W 122°37'0 0.0
2018-Jan-09 01:30N 48°31' W 122°37'0 0.0
2018-Jan-09 01:00N 48°31' W 122°37'0 0.0
2018-Jan-09 00:30N 48°31' W 122°37'0 0.0
2018-Jan-09 00:00N 48°31' W 122°37'0 0.0
2018-Jan-08 23:30N 48°31' W 122°37'0 0.0
2018-Jan-08 23:00N 48°31' W 122°37'0 0.0
2018-Jan-08 22:30N 48°31' W 122°37'0 0.0
2018-Jan-08 22:00N 48°31' W 122°37'0 0.0
2018-Jan-08 21:30N 48°31' W 122°37'0 0.0
2018-Jan-08 21:00N 48°31' W 122°37'0 0.0
2018-Jan-08 20:30N 48°31' W 122°37'0 0.0
2018-Jan-08 20:00N 48°31' W 122°37'0 0.0
2018-Jan-08 19:30N 48°31' W 122°37'0 0.0
2018-Jan-08 19:00N 48°31' W 122°37'0 0.0
2018-Jan-08 18:30N 48°31' W 122°37'0 0.0
2018-Jan-08 18:00N 48°31' W 122°37'0 0.0
2018-Jan-08 17:30N 48°31' W 122°37'0 0.0
2018-Jan-08 17:00N 48°31' W 122°37'0 0.0
2018-Jan-08 16:30N 48°31' W 122°37'0 0.0
2018-Jan-08 16:00N 48°31' W 122°37'0 0.0
2018-Jan-08 15:30N 48°31' W 122°37'0 0.0
2018-Jan-08 15:00N 48°31' W 122°37'0 0.0
2018-Jan-08 14:30N 48°31' W 122°37'0 0.0
2018-Jan-08 14:00N 48°31' W 122°37'0 0.0
2018-Jan-08 13:30N 48°31' W 122°37'0 0.0
2018-Jan-08 13:00N 48°31' W 122°37'0 0.0
2018-Jan-08 12:30N 48°31' W 122°37'0 0.0
2018-Jan-08 12:00N 48°31' W 122°37'0 0.0
2018-Jan-08 11:30N 48°31' W 122°37'0 0.0
2018-Jan-08 11:00N 48°31' W 122°37'0 0.0
2018-Jan-08 10:30N 48°31' W 122°37'0 0.0
2018-Jan-08 10:00N 48°31' W 122°37'0 0.0
2018-Jan-08 09:30N 48°31' W 122°37'0 0.0
2018-Jan-08 09:00N 48°31' W 122°37'0 0.0
2018-Jan-08 08:30N 48°31' W 122°37'0 0.0
2018-Jan-08 08:00N 48°31' W 122°37'0 0.0
2018-Jan-08 07:30N 48°31' W 122°37'0 0.0
2018-Jan-08 07:00N 48°31' W 122°37'0 0.0
2018-Jan-08 05:11N 48°31' W 122°37'0 0.0
2018-Jan-08 05:00N 48°31' W 122°37'0 0.0
2018-Jan-08 04:30N 48°31' W 122°37'0 0.0
2018-Jan-08 04:00N 48°31' W 122°37'0 0.0
2018-Jan-08 03:30N 48°31' W 122°37'0 0.0
2018-Jan-08 03:00N 48°31' W 122°37'0 0.0
2018-Jan-08 02:30N 48°31' W 122°37'0 0.0
2018-Jan-08 02:00N 48°31' W 122°37'0 0.0
2018-Jan-08 01:30N 48°31' W 122°37'0 0.0
2018-Jan-08 01:00N 48°31' W 122°37'0 0.0
2018-Jan-08 00:30N 48°31' W 122°37'0 0.0
2018-Jan-08 00:00N 48°31' W 122°37'0 0.0
2018-Jan-07 23:30N 48°31' W 122°37'0 0.0
2018-Jan-07 23:01N 48°31' W 122°37'0 0.0
2018-Jan-07 22:30N 48°31' W 122°37'0 0.0
2018-Jan-07 22:00N 48°31' W 122°37'0 0.0
2018-Jan-07 21:30N 48°31' W 122°37'0 0.0
2018-Jan-07 21:01N 48°31' W 122°37'0 0.0
2018-Jan-07 20:30N 48°31' W 122°37'0 0.0
2018-Jan-07 20:00N 48°31' W 122°37'0 0.0
2018-Jan-07 19:30N 48°31' W 122°37'0 0.0
2018-Jan-07 19:00N 48°31' W 122°37'0 0.0
2018-Jan-07 18:30N 48°31' W 122°37'0 0.0
2018-Jan-07 18:00N 48°31' W 122°37'0 0.0
2018-Jan-07 17:30N 48°31' W 122°37'0 0.0
2018-Jan-07 17:00N 48°31' W 122°37'0 0.0
2018-Jan-07 16:30N 48°31' W 122°37'0 0.0
2018-Jan-07 16:00N 48°31' W 122°37'0 0.0
2018-Jan-07 15:30N 48°31' W 122°37'0 0.0
2018-Jan-07 15:00N 48°31' W 122°37'0 0.0
2018-Jan-07 14:30N 48°31' W 122°37'0 0.0
2018-Jan-07 14:00N 48°31' W 122°37'0 0.0
2018-Jan-07 13:30N 48°31' W 122°37'0 0.0
2018-Jan-07 13:00N 48°31' W 122°37'0 0.0
2018-Jan-07 12:30N 48°31' W 122°37'0 0.0
2018-Jan-07 12:00N 48°31' W 122°37'0 0.0
2018-Jan-07 11:30N 48°31' W 122°37'0 0.0
2018-Jan-07 11:00N 48°31' W 122°37'0 0.0
2018-Jan-07 10:30N 48°31' W 122°37'0 0.0
2018-Jan-07 10:00N 48°31' W 122°37'0 0.0
2018-Jan-07 09:30N 48°31' W 122°37'0 0.0
2018-Jan-07 09:00N 48°31' W 122°37'0 0.0
2018-Jan-07 08:30N 48°31' W 122°37'0 0.0
2018-Jan-07 08:00N 48°31' W 122°37'0 0.0
2018-Jan-07 07:30N 48°31' W 122°37'0 0.0
2018-Jan-07 07:00N 48°31' W 122°37'0 0.0
2018-Jan-07 06:30N 48°31' W 122°37'0 0.0
2018-Jan-07 06:00N 48°31' W 122°37'0 0.0
2018-Jan-07 05:30N 48°31' W 122°37'0 0.0
2018-Jan-07 05:00N 48°31' W 122°37'0 0.0
2018-Jan-07 04:30N 48°31' W 122°37'0 0.0
2018-Jan-07 04:00N 48°31' W 122°37'0 0.0
2018-Jan-07 03:30N 48°31' W 122°37'0 0.0
2018-Jan-07 03:00N 48°31' W 122°37'0 0.0
2018-Jan-07 02:30N 48°31' W 122°37'0 0.0
2018-Jan-07 02:00N 48°31' W 122°37'0 0.0
2018-Jan-07 01:30N 48°31' W 122°37'0 0.0
2018-Jan-07 00:30N 48°31' W 122°37'0 0.0
2018-Jan-07 00:00N 48°31' W 122°37'0 0.0
2018-Jan-06 23:30N 48°31' W 122°37'0 0.0
2018-Jan-06 23:00N 48°31' W 122°37'0 0.0
2018-Jan-06 22:30N 48°31' W 122°37'0 0.0
2018-Jan-06 22:00N 48°31' W 122°37'0 0.0
2018-Jan-06 21:30N 48°31' W 122°37'0 0.0
2018-Jan-06 21:01N 48°31' W 122°37'0 0.0
2018-Jan-06 20:30N 48°31' W 122°37'0 0.0
2018-Jan-06 20:00N 48°31' W 122°37'0 0.0
2018-Jan-06 19:30N 48°31' W 122°37'0 0.0
2018-Jan-06 19:00N 48°31' W 122°37'0 0.0
2018-Jan-06 18:30N 48°31' W 122°37'0 0.0
2018-Jan-06 18:00N 48°31' W 122°37'0 0.0
2018-Jan-06 17:30N 48°31' W 122°37'0 0.0
2018-Jan-06 17:00N 48°31' W 122°37'0 0.0
2018-Jan-06 16:30N 48°31' W 122°37'0 0.0
2018-Jan-06 16:00N 48°31' W 122°37'0 0.0
2018-Jan-06 15:30N 48°31' W 122°37'0 0.0
2018-Jan-06 15:01N 48°31' W 122°37'0 0.0
2018-Jan-06 14:30N 48°31' W 122°37'0 0.0
2018-Jan-06 14:00N 48°31' W 122°37'0 0.0
2018-Jan-06 13:30N 48°31' W 122°37'0 0.0
2018-Jan-06 13:00N 48°31' W 122°37'0 0.0
2018-Jan-06 12:30N 48°31' W 122°37'0 0.0
2018-Jan-06 12:00N 48°31' W 122°37'0 0.0
2018-Jan-06 11:30N 48°31' W 122°37'0 0.0
2018-Jan-06 11:00N 48°31' W 122°37'0 0.0
2018-Jan-06 10:30N 48°31' W 122°37'0 0.0
2018-Jan-06 10:00N 48°31' W 122°37'0 0.0
2018-Jan-06 09:30N 48°31' W 122°37'0 0.0
2018-Jan-06 09:01N 48°31' W 122°37'0 0.0
2018-Jan-06 08:30N 48°31' W 122°37'0 0.0
2018-Jan-06 08:00N 48°31' W 122°37'0 0.0
2018-Jan-06 07:30N 48°31' W 122°37'0 0.0
2018-Jan-06 07:00N 48°31' W 122°37'0 0.0
2018-Jan-06 06:30N 48°31' W 122°37'0 0.0
2018-Jan-06 06:00N 48°31' W 122°37'0 0.0
2018-Jan-06 05:30N 48°31' W 122°37'0 0.0
2018-Jan-06 05:00N 48°31' W 122°37'0 0.0
2018-Jan-06 04:30N 48°31' W 122°37'0 0.0
2018-Jan-06 04:00N 48°31' W 122°37'0 0.0
2018-Jan-06 03:30N 48°31' W 122°37'0 0.0
2018-Jan-06 03:01N 48°31' W 122°37'0 0.0
2018-Jan-06 02:30N 48°31' W 122°37'0 0.0
2018-Jan-06 02:00N 48°31' W 122°37'0 0.0
2018-Jan-06 01:30N 48°31' W 122°37'0 0.0
2018-Jan-06 01:00N 48°31' W 122°37'0 0.0
2018-Jan-06 00:31N 48°31' W 122°37'0 0.0
2018-Jan-06 00:00N 48°31' W 122°37'0 0.0
2018-Jan-05 23:30N 48°31' W 122°37'0 0.0
2018-Jan-05 23:00N 48°31' W 122°37'0 0.0
2018-Jan-05 22:30N 48°31' W 122°37'0 0.0
2018-Jan-05 22:00N 48°31' W 122°37'0 0.0
2018-Jan-05 21:30N 48°31' W 122°37'0 0.0
2018-Jan-05 21:00N 48°31' W 122°37'0 0.0
2018-Jan-05 20:30N 48°31' W 122°37'0 0.0
2018-Jan-05 20:00N 48°31' W 122°37'0 0.0
2018-Jan-05 19:30N 48°31' W 122°37'0 0.0
2018-Jan-05 19:01N 48°31' W 122°37'0 0.0
2018-Jan-05 18:30N 48°31' W 122°37'0 0.0
2018-Jan-05 18:00N 48°31' W 122°37'0 0.0
2018-Jan-05 17:30N 48°31' W 122°37'0 0.0
2018-Jan-05 17:00N 48°31' W 122°37'0 0.0
2018-Jan-05 16:30N 48°31' W 122°37'0 0.0
2018-Jan-05 16:00N 48°31' W 122°37'0 0.0
2018-Jan-05 15:30N 48°31' W 122°37'0 0.0
2018-Jan-05 15:00N 48°31' W 122°37'0 0.0
2018-Jan-05 14:30N 48°31' W 122°37'0 0.0
2018-Jan-05 14:00N 48°31' W 122°37'0 0.0
2018-Jan-05 13:30N 48°31' W 122°37'0 0.0
2018-Jan-05 13:01N 48°31' W 122°37'0 0.0
2018-Jan-05 12:30N 48°31' W 122°37'0 0.0
2018-Jan-05 12:00N 48°31' W 122°37'0 0.0
2018-Jan-05 11:30N 48°31' W 122°37'0 0.0
2018-Jan-05 11:00N 48°31' W 122°37'0 0.0
2018-Jan-05 10:30N 48°31' W 122°37'0 0.0
2018-Jan-05 10:00N 48°31' W 122°37'0 0.0
2018-Jan-05 09:30N 48°31' W 122°37'0 0.0
2018-Jan-05 09:00N 48°31' W 122°37'0 0.0
2018-Jan-05 08:30N 48°31' W 122°37'0 0.0
2018-Jan-05 08:00N 48°31' W 122°37'0 0.0
2018-Jan-05 07:30N 48°31' W 122°37'0 0.0
2018-Jan-05 07:00N 48°31' W 122°37'0 0.0
2018-Jan-05 06:30N 48°31' W 122°37'0 0.0
2018-Jan-05 06:00N 48°31' W 122°37'0 0.0
2018-Jan-05 05:30N 48°31' W 122°37'0 0.0
2018-Jan-05 05:00N 48°31' W 122°37'0 0.0
2018-Jan-05 04:30N 48°31' W 122°37'0 0.0
2018-Jan-05 04:01N 48°31' W 122°37'0 0.0
2018-Jan-05 03:30N 48°31' W 122°37'0 0.0
2018-Jan-05 03:00N 48°31' W 122°37'0 0.0
2018-Jan-05 02:30N 48°31' W 122°37'0 0.0
2018-Jan-05 02:00N 48°31' W 122°37'0 0.0
2018-Jan-05 01:30N 48°31' W 122°37'0 0.0
2018-Jan-05 01:00N 48°31' W 122°37'0 0.0
2018-Jan-05 00:30N 48°31' W 122°37'0 0.0
2018-Jan-05 00:00N 48°31' W 122°37'0 0.0
2018-Jan-04 23:30N 48°31' W 122°37'0 0.0
2018-Jan-04 23:00N 48°31' W 122°37'0 0.0
2018-Jan-04 22:30N 48°31' W 122°37'0 0.0
2018-Jan-04 22:00N 48°31' W 122°37'0 0.0
2018-Jan-04 21:30N 48°31' W 122°37'0 0.0
2018-Jan-04 21:00N 48°31' W 122°37'0 0.0
2018-Jan-04 20:30N 48°31' W 122°37'0 0.0
2018-Jan-04 20:00N 48°31' W 122°37'0 0.0
2018-Jan-04 19:30N 48°31' W 122°37'0 0.0
2018-Jan-04 19:00N 48°31' W 122°37'0 0.0
2018-Jan-04 18:30N 48°31' W 122°37'0 0.0
2018-Jan-04 18:00N 48°31' W 122°37'0 0.0
2018-Jan-04 17:30N 48°31' W 122°37'0 0.0
2018-Jan-04 17:00N 48°31' W 122°37'0 0.0
2018-Jan-04 16:30N 48°31' W 122°37'0 0.0
2018-Jan-04 16:00N 48°31' W 122°37'0 0.0
2018-Jan-04 15:30N 48°31' W 122°37'0 0.0
2018-Jan-04 15:00N 48°31' W 122°37'0 0.0
2018-Jan-04 14:30N 48°31' W 122°37'0 0.0
2018-Jan-04 14:00N 48°31' W 122°37'0 0.0
2018-Jan-04 13:30N 48°31' W 122°37'0 0.0
2018-Jan-04 13:00N 48°31' W 122°37'0 0.0
2018-Jan-04 12:30N 48°31' W 122°37'0 0.0
2018-Jan-04 12:00N 48°31' W 122°37'0 0.0
2018-Jan-04 11:30N 48°31' W 122°37'0 0.0
2018-Jan-04 11:00N 48°31' W 122°37'0 0.0
2018-Jan-04 10:30N 48°31' W 122°37'0 0.0
2018-Jan-04 10:00N 48°31' W 122°37'0 0.0
2018-Jan-04 09:30N 48°31' W 122°37'0 0.0
2018-Jan-04 09:00N 48°31' W 122°37'0 0.0
2018-Jan-04 08:30N 48°31' W 122°37'0 0.0
2018-Jan-04 08:00N 48°31' W 122°37'0 0.0
2018-Jan-04 07:30N 48°31' W 122°37'0 0.0
2018-Jan-04 07:00N 48°31' W 122°37'0 0.0
2018-Jan-04 06:30N 48°31' W 122°37'0 0.0
2018-Jan-04 06:00N 48°31' W 122°37'0 0.0
2018-Jan-04 05:30N 48°31' W 122°37'0 0.0
2018-Jan-04 05:00N 48°31' W 122°37'0 0.0
2018-Jan-04 04:30N 48°31' W 122°37'0 0.0
2018-Jan-04 04:00N 48°31' W 122°37'0 0.0
2018-Jan-04 03:30N 48°31' W 122°37'0 0.0
2018-Jan-04 03:00N 48°31' W 122°37'0 0.0
2018-Jan-04 02:30N 48°31' W 122°37'0 0.0
2018-Jan-04 02:00N 48°31' W 122°37'0 0.0
2018-Jan-04 01:30N 48°31' W 122°37'0 0.0
2018-Jan-04 01:00N 48°31' W 122°37'0 0.0
2018-Jan-04 00:30N 48°31' W 122°37'0 0.0
2018-Jan-04 00:00N 48°31' W 122°37'0 0.0
2018-Jan-03 23:30N 48°31' W 122°37'0 0.0
2018-Jan-03 23:00N 48°31' W 122°37'0 0.0
2018-Jan-03 22:30N 48°31' W 122°37'0 0.0
2018-Jan-03 22:00N 48°31' W 122°37'0 0.0
2018-Jan-03 21:30N 48°31' W 122°37'0 0.0
2018-Jan-03 21:00N 48°31' W 122°37'0 0.0
2018-Jan-03 20:30N 48°31' W 122°37'0 0.0
2018-Jan-03 20:00N 48°31' W 122°37'0 0.0
2018-Jan-03 19:30N 48°31' W 122°37'0 0.0
2018-Jan-03 19:00N 48°31' W 122°37'0 0.0
2018-Jan-03 18:30N 48°31' W 122°37'0 0.0
2018-Jan-03 18:00N 48°31' W 122°37'0 0.0
2018-Jan-03 17:30N 48°31' W 122°37'0 0.0
2018-Jan-03 17:00N 48°31' W 122°37'0 0.0
2018-Jan-03 16:30N 48°31' W 122°37'0 0.0
2018-Jan-03 16:00N 48°31' W 122°37'0 0.0
2018-Jan-03 15:30N 48°31' W 122°37'0 0.0
2018-Jan-03 15:00N 48°31' W 122°37'0 0.0
2018-Jan-03 14:30N 48°31' W 122°37'0 0.0
2018-Jan-03 14:00N 48°31' W 122°37'0 0.0
2018-Jan-03 13:30N 48°31' W 122°37'0 0.0
2018-Jan-03 13:00N 48°31' W 122°37'0 0.0
2018-Jan-03 12:30N 48°31' W 122°37'0 0.0
2018-Jan-03 12:00N 48°31' W 122°37'0 0.0
2018-Jan-03 11:30N 48°31' W 122°37'0 0.0
2018-Jan-03 11:00N 48°31' W 122°37'0 0.0
2018-Jan-03 10:30N 48°31' W 122°37'0 0.0
2018-Jan-03 10:00N 48°31' W 122°37'0 0.0
2018-Jan-03 09:30N 48°31' W 122°37'0 0.0
2018-Jan-03 09:00N 48°31' W 122°37'0 0.0
2018-Jan-03 08:30N 48°31' W 122°37'0 0.0
2018-Jan-03 08:00N 48°31' W 122°37'0 0.0
2018-Jan-03 07:30N 48°31' W 122°37'0 0.0
2018-Jan-03 07:00N 48°31' W 122°37'0 0.0
2018-Jan-03 06:30N 48°31' W 122°37'0 0.0
2018-Jan-03 06:00N 48°31' W 122°37'0 0.0
2018-Jan-03 05:30N 48°31' W 122°37'0 0.0
2018-Jan-03 05:00N 48°31' W 122°37'0 0.0
2018-Jan-03 04:30N 48°31' W 122°37'0 0.0
2018-Jan-03 04:00N 48°31' W 122°37'0 0.0
2018-Jan-03 03:30N 48°31' W 122°37'0 0.0
2018-Jan-03 03:00N 48°31' W 122°37'0 0.0
2018-Jan-03 02:30N 48°31' W 122°37'0 0.0
2018-Jan-03 02:00N 48°31' W 122°37'0 0.0
2018-Jan-03 01:30N 48°31' W 122°37'0 0.0
2018-Jan-03 01:00N 48°31' W 122°37'0 0.0
2018-Jan-03 00:30N 48°31' W 122°37'0 0.0
2018-Jan-03 00:00N 48°31' W 122°37'0 0.0
2018-Jan-02 23:30N 48°31' W 122°37'0 0.0
2018-Jan-02 23:00N 48°31' W 122°37'0 0.0
2018-Jan-02 22:30N 48°31' W 122°37'0 0.0
2018-Jan-02 22:00N 48°31' W 122°37'0 0.0
2018-Jan-02 21:30N 48°31' W 122°37'0 0.0
2018-Jan-02 21:00N 48°31' W 122°37'0 0.0
2018-Jan-02 20:30N 48°31' W 122°37'0 0.0
2018-Jan-02 20:00N 48°31' W 122°37'0 0.0
2018-Jan-02 19:30N 48°31' W 122°37'0 0.0
2018-Jan-02 19:00N 48°31' W 122°37'0 0.0
2018-Jan-02 18:30N 48°31' W 122°37'0 0.0
2018-Jan-02 18:00N 48°31' W 122°37'0 0.0
2018-Jan-02 17:30N 48°31' W 122°37'0 0.0
2018-Jan-02 17:00N 48°31' W 122°37'0 0.0
2018-Jan-02 16:30N 48°31' W 122°37'0 0.0
2018-Jan-02 16:00N 48°31' W 122°37'0 0.0
2018-Jan-02 15:30N 48°31' W 122°37'0 0.0
2018-Jan-02 15:00N 48°31' W 122°37'0 0.0
2018-Jan-02 14:30N 48°31' W 122°37'0 0.0
2018-Jan-02 14:00N 48°31' W 122°37'0 0.0
2018-Jan-02 13:30N 48°31' W 122°37'0 0.0
2018-Jan-02 13:00N 48°31' W 122°37'0 0.0
2018-Jan-02 12:30N 48°31' W 122°37'0 0.0
2018-Jan-02 12:00N 48°31' W 122°37'0 0.0
2018-Jan-02 11:30N 48°31' W 122°37'0 0.0
2018-Jan-02 11:00N 48°31' W 122°37'0 0.0
2018-Jan-02 10:30N 48°31' W 122°37'0 0.0
2018-Jan-02 10:00N 48°31' W 122°37'0 0.0
2018-Jan-02 09:31N 48°31' W 122°37'0 0.0
2018-Jan-02 08:30N 48°31' W 122°37'0 0.0
2018-Jan-02 08:00N 48°31' W 122°37'0 0.0
2018-Jan-02 07:30N 48°31' W 122°37'  
Track history (hours):
 
Tides and Currents Weather Stations Pressure Air Temp Water Temp Dewpoint Dewpoint Depression Visibility Wind Speed Wind Dir Waves Ship Positions

Nordic Star

Owner: F/V Nordic Star LLC, SEATTLE, WA. More information available from US FCC via Universal Licensing System and Coast Guard Vessel Documentation Center.

Last reported at 2018-Jan-12 07:07 UTC. Time now 2018-Feb-25 23:35 UTC.
Position N 52°01' W 129°22'.
Warning: this ship's position is 44 days out of date.

Length 33 m; draft 3.4 m.

Type: Fishing. MMSI: 367056452.

Date/timePositionNaut miles runAvg speedWind from/ knotsBaromVisibWave heightAir tempDewpointWater temp
2018-Jan-12 07:07N 52°01' W 129°22'1 9.5
2018-Jan-12 06:59N 52°01' W 129°21'10 9.4
2018-Jan-12 05:57N 51°53' W 129°11'5 9.7
2018-Jan-12 05:29N 51°49' W 129°07'5 9.7
2018-Jan-12 05:00N 51°46' W 129°02'5 9.7
2018-Jan-12 04:30N 51°42' W 128°57'5 9.4
2018-Jan-12 04:00N 51°38' W 128°53'5 9.4
2018-Jan-12 03:30N 51°34' W 128°48'5 9.7
2018-Jan-12 03:00N 51°30' W 128°43'5 9.8
2018-Jan-12 02:30N 51°27' W 128°39'5 9.5
2018-Jan-12 02:00N 51°23' W 128°34'5 9.1
2018-Jan-12 01:30N 51°19' W 128°30'5 9.6
2018-Jan-12 01:00N 51°15' W 128°25'510.0
2018-Jan-12 00:30N 51°11' W 128°20'5 9.7
2018-Jan-12 00:00N 51°07' W 128°15'5 9.5
2018-Jan-11 23:30N 51°04' W 128°10'810.1
2018-Jan-11 22:42N 51°01' W 127°58'210.7
2018-Jan-11 22:30N 51°00' W 127°55'10210.1
2018-Jan-11 12:24N 50°21' W 125°27'4 9.4
2018-Jan-11 12:00N 50°17' W 125°25'510.5
2018-Jan-11 11:29N 50°12' W 125°22'510.3
2018-Jan-11 11:00N 50°07' W 125°20'510.5
2018-Jan-11 10:30N 50°03' W 125°15'510.0
2018-Jan-11 10:00N 49°59' W 125°11'4 7.5
2018-Jan-11 09:30N 49°56' W 125°07'4 8.6
2018-Jan-11 08:59N 49°53' W 125°02'4 8.5
2018-Jan-11 08:30N 49°50' W 124°57'4 8.7
2018-Jan-11 08:00N 49°47' W 124°53'5 9.0
2018-Jan-11 07:30N 49°44' W 124°48'5 9.2
2018-Jan-11 07:00N 49°41' W 124°43'5 9.1
2018-Jan-11 06:30N 49°38' W 124°38'4 9.0
2018-Jan-11 06:00N 49°34' W 124°33'5 8.7
2018-Jan-11 05:29N 49°31' W 124°28'4 8.9
2018-Jan-11 05:00N 49°28' W 124°23'510.0
2018-Jan-11 04:30N 49°25' W 124°17'5 9.9
2018-Jan-11 04:01N 49°23' W 124°10'5 9.8
2018-Jan-11 03:31N 49°21' W 124°03'5 9.8
2018-Jan-11 02:59N 49°18' W 123°57'5 9.7
2018-Jan-11 02:30N 49°16' W 123°50'13 9.6
2018-Jan-11 01:08N 49°09' W 123°33'2 9.6
2018-Jan-11 00:58N 49°08' W 123°31'4 9.4
2018-Jan-11 00:30N 49°06' W 123°25'4 8.9
2018-Jan-11 00:00N 49°03' W 123°20'4 8.7
2018-Jan-10 23:30N 49°01' W 123°15'4 8.1
2018-Jan-10 23:00N 48°58' W 123°10'4 8.1
2018-Jan-10 22:30N 48°55' W 123°05'4 8.7
2018-Jan-10 22:00N 48°53' W 123°00'4 8.2
2018-Jan-10 21:30N 48°50' W 122°55'4 8.3
2018-Jan-10 20:58N 48°47' W 122°50'4 8.3
2018-Jan-10 20:30N 48°45' W 122°45'4 8.9
2018-Jan-10 20:00N 48°41' W 122°42'4 8.7
2018-Jan-10 19:30N 48°37' W 122°45'5 9.4
2018-Jan-10 19:00N 48°32' W 122°44'4 7.5
2018-Jan-10 18:30N 48°31' W 122°38'1 2.4
2018-Jan-10 18:00N 48°31' W 122°37'0 0.0
2018-Jan-10 17:30N 48°31' W 122°37'0 0.0
2018-Jan-10 17:00N 48°31' W 122°37'0 0.0
2018-Jan-10 16:30N 48°31' W 122°37'0 0.0
2018-Jan-10 16:00N 48°31' W 122°37'0 0.0
2018-Jan-10 15:30N 48°31' W 122°37'0 0.0
2018-Jan-10 15:00N 48°31' W 122°37'0 0.0
2018-Jan-10 14:30N 48°31' W 122°37'0 0.0
2018-Jan-10 14:00N 48°31' W 122°37'0 0.0
2018-Jan-10 13:30N 48°31' W 122°37'0 0.0
2018-Jan-10 13:00N 48°31' W 122°37'0 0.0
2018-Jan-10 12:30N 48°31' W 122°37'0 0.0
2018-Jan-10 12:00N 48°31' W 122°37'0 0.0
2018-Jan-10 11:30N 48°31' W 122°37'0 0.0
2018-Jan-10 11:00N 48°31' W 122°37'0 0.0
2018-Jan-10 10:30N 48°31' W 122°37'0 0.0
2018-Jan-10 10:00N 48°31' W 122°37'0 0.0
2018-Jan-10 09:30N 48°31' W 122°37'0 0.0
2018-Jan-10 09:00N 48°31' W 122°37'0 0.0
2018-Jan-10 08:30N 48°31' W 122°37'0 0.0
2018-Jan-10 08:00N 48°31' W 122°37'0 0.0
2018-Jan-10 07:30N 48°31' W 122°37'0 0.0
2018-Jan-10 07:00N 48°31' W 122°37'0 0.0
2018-Jan-10 06:30N 48°31' W 122°37'0 0.0
2018-Jan-10 06:00N 48°31' W 122°37'0 0.0
2018-Jan-10 05:30N 48°31' W 122°37'0 0.0
2018-Jan-10 05:00N 48°31' W 122°37'0 0.0
2018-Jan-10 04:30N 48°31' W 122°37'0 0.0
2018-Jan-10 04:00N 48°31' W 122°37'0 0.0
2018-Jan-10 03:30N 48°31' W 122°37'0 0.0
2018-Jan-10 03:00N 48°31' W 122°37'0 0.0
2018-Jan-10 02:30N 48°31' W 122°37'0 0.0
2018-Jan-10 02:00N 48°31' W 122°37'0 0.0
2018-Jan-10 01:30N 48°31' W 122°37'0 0.0
2018-Jan-10 01:00N 48°31' W 122°37'0 0.0
2018-Jan-10 00:30N 48°31' W 122°37'0 0.0
2018-Jan-10 00:00N 48°31' W 122°37'0 0.0
2018-Jan-09 23:30N 48°31' W 122°37'0 0.0
2018-Jan-09 23:00N 48°31' W 122°37'0 0.0
2018-Jan-09 22:30N 48°31' W 122°37'0 0.0
2018-Jan-09 22:00N 48°31' W 122°37'0 0.0
2018-Jan-09 21:30N 48°31' W 122°37'0 0.0
2018-Jan-09 21:00N 48°31' W 122°37'0 0.0
2018-Jan-09 20:30N 48°31' W 122°37'0 0.0
2018-Jan-09 20:00N 48°31' W 122°37'0 0.0
2018-Jan-09 19:30N 48°31' W 122°37'0 0.0
2018-Jan-09 19:00N 48°31' W 122°37'0 0.0
2018-Jan-09 18:30N 48°31' W 122°37'0 0.0
2018-Jan-09 18:00N 48°31' W 122°37'0 0.0
2018-Jan-09 17:30N 48°31' W 122°37'0 0.0
2018-Jan-09 17:00N 48°31' W 122°37'0 0.0
2018-Jan-09 16:30N 48°31' W 122°37'0 0.0
2018-Jan-09 16:00N 48°31' W 122°37'0 0.0
2018-Jan-09 15:30N 48°31' W 122°37'0 0.0
2018-Jan-09 15:00N 48°31' W 122°37'0 0.0
2018-Jan-09 14:30N 48°31' W 122°37'0 0.0
2018-Jan-09 14:00N 48°31' W 122°37'0 0.0
2018-Jan-09 13:30N 48°31' W 122°37'0 0.0
2018-Jan-09 13:00N 48°31' W 122°37'0 0.0
2018-Jan-09 12:30N 48°31' W 122°37'0 0.0
2018-Jan-09 12:00N 48°31' W 122°37'0 0.0
2018-Jan-09 11:30N 48°31' W 122°37'0 0.0
2018-Jan-09 11:00N 48°31' W 122°37'0 0.0
2018-Jan-09 10:30N 48°31' W 122°37'0 0.0
2018-Jan-09 10:00N 48°31' W 122°37'0 0.0
2018-Jan-09 09:30N 48°31' W 122°37'0 0.0
2018-Jan-09 09:00N 48°31' W 122°37'0 0.0
2018-Jan-09 08:30N 48°31' W 122°37'0 0.0
2018-Jan-09 08:00N 48°31' W 122°37'0 0.0
2018-Jan-09 07:30N 48°31' W 122°37'0 0.0
2018-Jan-09 07:00N 48°31' W 122°37'0 0.0
2018-Jan-09 06:30N 48°31' W 122°37'0 0.0
2018-Jan-09 06:00N 48°31' W 122°37'0 0.0
2018-Jan-09 05:30N 48°31' W 122°37'0 0.0
2018-Jan-09 05:00N 48°31' W 122°37'0 0.0
2018-Jan-09 04:30N 48°31' W 122°37'0 0.0
2018-Jan-09 04:00N 48°31' W 122°37'0 0.0
2018-Jan-09 03:30N 48°31' W 122°37'0 0.0
2018-Jan-09 03:00N 48°31' W 122°37'0 0.0
2018-Jan-09 02:30N 48°31' W 122°37'0 0.0
2018-Jan-09 02:00N 48°31' W 122°37'0 0.0
2018-Jan-09 01:30N 48°31' W 122°37'0 0.0
2018-Jan-09 01:00N 48°31' W 122°37'0 0.0
2018-Jan-09 00:30N 48°31' W 122°37'0 0.0
2018-Jan-09 00:00N 48°31' W 122°37'0 0.0
2018-Jan-08 23:30N 48°31' W 122°37'0 0.0
2018-Jan-08 23:00N 48°31' W 122°37'0 0.0
2018-Jan-08 22:30N 48°31' W 122°37'0 0.0
2018-Jan-08 22:00N 48°31' W 122°37'0 0.0
2018-Jan-08 21:30N 48°31' W 122°37'0 0.0
2018-Jan-08 21:00N 48°31' W 122°37'0 0.0
2018-Jan-08 20:30N 48°31' W 122°37'0 0.0
2018-Jan-08 20:00N 48°31' W 122°37'0 0.0
2018-Jan-08 19:30N 48°31' W 122°37'0 0.0
2018-Jan-08 19:00N 48°31' W 122°37'0 0.0
2018-Jan-08 18:30N 48°31' W 122°37'0 0.0
2018-Jan-08 18:00N 48°31' W 122°37'0 0.0
2018-Jan-08 17:30N 48°31' W 122°37'0 0.0
2018-Jan-08 17:00N 48°31' W 122°37'0 0.0
2018-Jan-08 16:30N 48°31' W 122°37'0 0.0
2018-Jan-08 16:00N 48°31' W 122°37'0 0.0
2018-Jan-08 15:30N 48°31' W 122°37'0 0.0
2018-Jan-08 15:00N 48°31' W 122°37'0 0.0
2018-Jan-08 14:30N 48°31' W 122°37'0 0.0
2018-Jan-08 14:00N 48°31' W 122°37'0 0.0
2018-Jan-08 13:30N 48°31' W 122°37'0 0.0
2018-Jan-08 13:00N 48°31' W 122°37'0 0.0
2018-Jan-08 12:30N 48°31' W 122°37'0 0.0
2018-Jan-08 12:00N 48°31' W 122°37'0 0.0
2018-Jan-08 11:30N 48°31' W 122°37'0 0.0
2018-Jan-08 11:00N 48°31' W 122°37'0 0.0
2018-Jan-08 10:30N 48°31' W 122°37'0 0.0
2018-Jan-08 10:00N 48°31' W 122°37'0 0.0
2018-Jan-08 09:30N 48°31' W 122°37'0 0.0
2018-Jan-08 09:00N 48°31' W 122°37'0 0.0
2018-Jan-08 08:30N 48°31' W 122°37'0 0.0
2018-Jan-08 08:00N 48°31' W 122°37'0 0.0
2018-Jan-08 07:30N 48°31' W 122°37'0 0.0
2018-Jan-08 07:00N 48°31' W 122°37'0 0.0
2018-Jan-08 05:11N 48°31' W 122°37'0 0.0
2018-Jan-08 05:00N 48°31' W 122°37'0 0.0
2018-Jan-08 04:30N 48°31' W 122°37'0 0.0
2018-Jan-08 04:00N 48°31' W 122°37'0 0.0
2018-Jan-08 03:30N 48°31' W 122°37'0 0.0
2018-Jan-08 03:00N 48°31' W 122°37'0 0.0
2018-Jan-08 02:30N 48°31' W 122°37'0 0.0
2018-Jan-08 02:00N 48°31' W 122°37'0 0.0
2018-Jan-08 01:30N 48°31' W 122°37'0 0.0
2018-Jan-08 01:00N 48°31' W 122°37'0 0.0
2018-Jan-08 00:30N 48°31' W 122°37'0 0.0
2018-Jan-08 00:00N 48°31' W 122°37'0 0.0
2018-Jan-07 23:30N 48°31' W 122°37'0 0.0
2018-Jan-07 23:01N 48°31' W 122°37'0 0.0
2018-Jan-07 22:30N 48°31' W 122°37'0 0.0
2018-Jan-07 22:00N 48°31' W 122°37'0 0.0
2018-Jan-07 21:30N 48°31' W 122°37'0 0.0
2018-Jan-07 21:01N 48°31' W 122°37'0 0.0
2018-Jan-07 20:30N 48°31' W 122°37'0 0.0
2018-Jan-07 20:00N 48°31' W 122°37'0 0.0
2018-Jan-07 19:30N 48°31' W 122°37'0 0.0
2018-Jan-07 19:00N 48°31' W 122°37'0 0.0
2018-Jan-07 18:30N 48°31' W 122°37'0 0.0
2018-Jan-07 18:00N 48°31' W 122°37'0 0.0
2018-Jan-07 17:30N 48°31' W 122°37'0 0.0
2018-Jan-07 17:00N 48°31' W 122°37'0 0.0
2018-Jan-07 16:30N 48°31' W 122°37'0 0.0
2018-Jan-07 16:00N 48°31' W 122°37'0 0.0
2018-Jan-07 15:30N 48°31' W 122°37'0 0.0
2018-Jan-07 15:00N 48°31' W 122°37'0 0.0
2018-Jan-07 14:30N 48°31' W 122°37'0 0.0
2018-Jan-07 14:00N 48°31' W 122°37'0 0.0
2018-Jan-07 13:30N 48°31' W 122°37'0 0.0
2018-Jan-07 13:00N 48°31' W 122°37'0 0.0
2018-Jan-07 12:30N 48°31' W 122°37'0 0.0
2018-Jan-07 12:00N 48°31' W 122°37'0 0.0
2018-Jan-07 11:30N 48°31' W 122°37'0 0.0
2018-Jan-07 11:00N 48°31' W 122°37'0 0.0
2018-Jan-07 10:30N 48°31' W 122°37'0 0.0
2018-Jan-07 10:00N 48°31' W 122°37'0 0.0
2018-Jan-07 09:30N 48°31' W 122°37'0 0.0
2018-Jan-07 09:00N 48°31' W 122°37'0 0.0
2018-Jan-07 08:30N 48°31' W 122°37'0 0.0
2018-Jan-07 08:00N 48°31' W 122°37'0 0.0
2018-Jan-07 07:30N 48°31' W 122°37'0 0.0
2018-Jan-07 07:00N 48°31' W 122°37'0 0.0
2018-Jan-07 06:30N 48°31' W 122°37'0 0.0
2018-Jan-07 06:00N 48°31' W 122°37'0 0.0
2018-Jan-07 05:30N 48°31' W 122°37'0 0.0
2018-Jan-07 05:00N 48°31' W 122°37'0 0.0
2018-Jan-07 04:30N 48°31' W 122°37'0 0.0
2018-Jan-07 04:00N 48°31' W 122°37'0 0.0
2018-Jan-07 03:30N 48°31' W 122°37'0 0.0
2018-Jan-07 03:00N 48°31' W 122°37'0 0.0
2018-Jan-07 02:30N 48°31' W 122°37'0 0.0
2018-Jan-07 02:00N 48°31' W 122°37'0 0.0
2018-Jan-07 01:30N 48°31' W 122°37'0 0.0
2018-Jan-07 00:30N 48°31' W 122°37'0 0.0
2018-Jan-07 00:00N 48°31' W 122°37'0 0.0
2018-Jan-06 23:30N 48°31' W 122°37'0 0.0
2018-Jan-06 23:00N 48°31' W 122°37'0 0.0
2018-Jan-06 22:30N 48°31' W 122°37'0 0.0
2018-Jan-06 22:00N 48°31' W 122°37'0 0.0
2018-Jan-06 21:30N 48°31' W 122°37'0 0.0
2018-Jan-06 21:01N 48°31' W 122°37'0 0.0
2018-Jan-06 20:30N 48°31' W 122°37'0 0.0
2018-Jan-06 20:00N 48°31' W 122°37'0 0.0
2018-Jan-06 19:30N 48°31' W 122°37'0 0.0
2018-Jan-06 19:00N 48°31' W 122°37'0 0.0
2018-Jan-06 18:30N 48°31' W 122°37'0 0.0
2018-Jan-06 18:00N 48°31' W 122°37'0 0.0
2018-Jan-06 17:30N 48°31' W 122°37'0 0.0
2018-Jan-06 17:00N 48°31' W 122°37'0 0.0
2018-Jan-06 16:30N 48°31' W 122°37'0 0.0
2018-Jan-06 16:00N 48°31' W 122°37'0 0.0
2018-Jan-06 15:30N 48°31' W 122°37'0 0.0
2018-Jan-06 15:01N 48°31' W 122°37'0 0.0
2018-Jan-06 14:30N 48°31' W 122°37'0 0.0
2018-Jan-06 14:00N 48°31' W 122°37'0 0.0
2018-Jan-06 13:30N 48°31' W 122°37'0 0.0
2018-Jan-06 13:00N 48°31' W 122°37'0 0.0
2018-Jan-06 12:30N 48°31' W 122°37'0 0.0
2018-Jan-06 12:00N 48°31' W 122°37'0 0.0
2018-Jan-06 11:30N 48°31' W 122°37'0 0.0
2018-Jan-06 11:00N 48°31' W 122°37'0 0.0
2018-Jan-06 10:30N 48°31' W 122°37'0 0.0
2018-Jan-06 10:00N 48°31' W 122°37'0 0.0
2018-Jan-06 09:30N 48°31' W 122°37'0 0.0
2018-Jan-06 09:01N 48°31' W 122°37'0 0.0
2018-Jan-06 08:30N 48°31' W 122°37'0 0.0
2018-Jan-06 08:00N 48°31' W 122°37'0 0.0
2018-Jan-06 07:30N 48°31' W 122°37'0 0.0
2018-Jan-06 07:00N 48°31' W 122°37'0 0.0
2018-Jan-06 06:30N 48°31' W 122°37'0 0.0
2018-Jan-06 06:00N 48°31' W 122°37'0 0.0
2018-Jan-06 05:30N 48°31' W 122°37'0 0.0
2018-Jan-06 05:00N 48°31' W 122°37'0 0.0
2018-Jan-06 04:30N 48°31' W 122°37'0 0.0
2018-Jan-06 04:00N 48°31' W 122°37'0 0.0
2018-Jan-06 03:30N 48°31' W 122°37'0 0.0
2018-Jan-06 03:01N 48°31' W 122°37'0 0.0
2018-Jan-06 02:30N 48°31' W 122°37'0 0.0
2018-Jan-06 02:00N 48°31' W 122°37'0 0.0
2018-Jan-06 01:30N 48°31' W 122°37'0 0.0
2018-Jan-06 01:00N 48°31' W 122°37'0 0.0
2018-Jan-06 00:31N 48°31' W 122°37'0 0.0
2018-Jan-06 00:00N 48°31' W 122°37'0 0.0
2018-Jan-05 23:30N 48°31' W 122°37'0 0.0
2018-Jan-05 23:00N 48°31' W 122°37'0 0.0
2018-Jan-05 22:30N 48°31' W 122°37'0 0.0
2018-Jan-05 22:00N 48°31' W 122°37'0 0.0
2018-Jan-05 21:30N 48°31' W 122°37'0 0.0
2018-Jan-05 21:00N 48°31' W 122°37'0 0.0
2018-Jan-05 20:30N 48°31' W 122°37'0 0.0
2018-Jan-05 20:00N 48°31' W 122°37'0 0.0
2018-Jan-05 19:30N 48°31' W 122°37'0 0.0
2018-Jan-05 19:01N 48°31' W 122°37'0 0.0
2018-Jan-05 18:30N 48°31' W 122°37'0 0.0
2018-Jan-05 18:00N 48°31' W 122°37'0 0.0
2018-Jan-05 17:30N 48°31' W 122°37'0 0.0
2018-Jan-05 17:00N 48°31' W 122°37'0 0.0
2018-Jan-05 16:30N 48°31' W 122°37'0 0.0
2018-Jan-05 16:00N 48°31' W 122°37'0 0.0
2018-Jan-05 15:30N 48°31' W 122°37'0 0.0
2018-Jan-05 15:00N 48°31' W 122°37'0 0.0
2018-Jan-05 14:30N 48°31' W 122°37'0 0.0
2018-Jan-05 14:00N 48°31' W 122°37'0 0.0
2018-Jan-05 13:30N 48°31' W 122°37'0 0.0
2018-Jan-05 13:01N 48°31' W 122°37'0 0.0
2018-Jan-05 12:30N 48°31' W 122°37'0 0.0
2018-Jan-05 12:00N 48°31' W 122°37'0 0.0
2018-Jan-05 11:30N 48°31' W 122°37'0 0.0
2018-Jan-05 11:00N 48°31' W 122°37'0 0.0
2018-Jan-05 10:30N 48°31' W 122°37'0 0.0
2018-Jan-05 10:00N 48°31' W 122°37'0 0.0
2018-Jan-05 09:30N 48°31' W 122°37'0 0.0
2018-Jan-05 09:00N 48°31' W 122°37'0 0.0
2018-Jan-05 08:30N 48°31' W 122°37'0 0.0
2018-Jan-05 08:00N 48°31' W 122°37'0 0.0
2018-Jan-05 07:30N 48°31' W 122°37'0 0.0
2018-Jan-05 07:00N 48°31' W 122°37'0 0.0
2018-Jan-05 06:30N 48°31' W 122°37'0 0.0
2018-Jan-05 06:00N 48°31' W 122°37'0 0.0
2018-Jan-05 05:30N 48°31' W 122°37'0 0.0
2018-Jan-05 05:00N 48°31' W 122°37'0 0.0
2018-Jan-05 04:30N 48°31' W 122°37'0 0.0
2018-Jan-05 04:01N 48°31' W 122°37'0 0.0
2018-Jan-05 03:30N 48°31' W 122°37'0 0.0
2018-Jan-05 03:00N 48°31' W 122°37'0 0.0
2018-Jan-05 02:30N 48°31' W 122°37'0 0.0
2018-Jan-05 02:00N 48°31' W 122°37'0 0.0
2018-Jan-05 01:30N 48°31' W 122°37'0 0.0
2018-Jan-05 01:00N 48°31' W 122°37'0 0.0
2018-Jan-05 00:30N 48°31' W 122°37'0 0.0
2018-Jan-05 00:00N 48°31' W 122°37'0 0.0
2018-Jan-04 23:30N 48°31' W 122°37'0 0.0
2018-Jan-04 23:00N 48°31' W 122°37'0 0.0
2018-Jan-04 22:30N 48°31' W 122°37'0 0.0
2018-Jan-04 22:00N 48°31' W 122°37'0 0.0
2018-Jan-04 21:30N 48°31' W 122°37'0 0.0
2018-Jan-04 21:00N 48°31' W 122°37'0 0.0
2018-Jan-04 20:30N 48°31' W 122°37'0 0.0
2018-Jan-04 20:00N 48°31' W 122°37'0 0.0
2018-Jan-04 19:30N 48°31' W 122°37'0 0.0
2018-Jan-04 19:00N 48°31' W 122°37'0 0.0
2018-Jan-04 18:30N 48°31' W 122°37'0 0.0
2018-Jan-04 18:00N 48°31' W 122°37'0 0.0
2018-Jan-04 17:30N 48°31' W 122°37'0 0.0
2018-Jan-04 17:00N 48°31' W 122°37'0 0.0
2018-Jan-04 16:30N 48°31' W 122°37'0 0.0
2018-Jan-04 16:00N 48°31' W 122°37'0 0.0
2018-Jan-04 15:30N 48°31' W 122°37'0 0.0
2018-Jan-04 15:00N 48°31' W 122°37'0 0.0
2018-Jan-04 14:30N 48°31' W 122°37'0 0.0
2018-Jan-04 14:00N 48°31' W 122°37'0 0.0
2018-Jan-04 13:30N 48°31' W 122°37'0 0.0
2018-Jan-04 13:00N 48°31' W 122°37'0 0.0
2018-Jan-04 12:30N 48°31' W 122°37'0 0.0
2018-Jan-04 12:00N 48°31' W 122°37'0 0.0
2018-Jan-04 11:30N 48°31' W 122°37'0 0.0
2018-Jan-04 11:00N 48°31' W 122°37'0 0.0
2018-Jan-04 10:30N 48°31' W 122°37'0 0.0
2018-Jan-04 10:00N 48°31' W 122°37'0 0.0
2018-Jan-04 09:30N 48°31' W 122°37'0 0.0
2018-Jan-04 09:00N 48°31' W 122°37'0 0.0
2018-Jan-04 08:30N 48°31' W 122°37'0 0.0
2018-Jan-04 08:00N 48°31' W 122°37'0 0.0
2018-Jan-04 07:30N 48°31' W 122°37'0 0.0
2018-Jan-04 07:00N 48°31' W 122°37'0 0.0
2018-Jan-04 06:30N 48°31' W 122°37'0 0.0
2018-Jan-04 06:00N 48°31' W 122°37'0 0.0
2018-Jan-04 05:30N 48°31' W 122°37'0 0.0
2018-Jan-04 05:00N 48°31' W 122°37'0 0.0
2018-Jan-04 04:30N 48°31' W 122°37'0 0.0
2018-Jan-04 04:00N 48°31' W 122°37'0 0.0
2018-Jan-04 03:30N 48°31' W 122°37'0 0.0
2018-Jan-04 03:00N 48°31' W 122°37'0 0.0
2018-Jan-04 02:30N 48°31' W 122°37'0 0.0
2018-Jan-04 02:00N 48°31' W 122°37'0 0.0
2018-Jan-04 01:30N 48°31' W 122°37'0 0.0
2018-Jan-04 01:00N 48°31' W 122°37'0 0.0
2018-Jan-04 00:30N 48°31' W 122°37'0 0.0
2018-Jan-04 00:00N 48°31' W 122°37'0 0.0
2018-Jan-03 23:30N 48°31' W 122°37'0 0.0
2018-Jan-03 23:00N 48°31' W 122°37'0 0.0
2018-Jan-03 22:30N 48°31' W 122°37'0 0.0
2018-Jan-03 22:00N 48°31' W 122°37'0 0.0
2018-Jan-03 21:30N 48°31' W 122°37'0 0.0
2018-Jan-03 21:00N 48°31' W 122°37'0 0.0
2018-Jan-03 20:30N 48°31' W 122°37'0 0.0
2018-Jan-03 20:00N 48°31' W 122°37'0 0.0
2018-Jan-03 19:30N 48°31' W 122°37'0 0.0
2018-Jan-03 19:00N 48°31' W 122°37'0 0.0
2018-Jan-03 18:30N 48°31' W 122°37'0 0.0
2018-Jan-03 18:00N 48°31' W 122°37'0 0.0
2018-Jan-03 17:30N 48°31' W 122°37'0 0.0
2018-Jan-03 17:00N 48°31' W 122°37'0 0.0
2018-Jan-03 16:30N 48°31' W 122°37'0 0.0
2018-Jan-03 16:00N 48°31' W 122°37'0 0.0
2018-Jan-03 15:30N 48°31' W 122°37'0 0.0
2018-Jan-03 15:00N 48°31' W 122°37'0 0.0
2018-Jan-03 14:30N 48°31' W 122°37'0 0.0
2018-Jan-03 14:00N 48°31' W 122°37'0 0.0
2018-Jan-03 13:30N 48°31' W 122°37'0 0.0
2018-Jan-03 13:00N 48°31' W 122°37'0 0.0
2018-Jan-03 12:30N 48°31' W 122°37'0 0.0
2018-Jan-03 12:00N 48°31' W 122°37'0 0.0
2018-Jan-03 11:30N 48°31' W 122°37'0 0.0
2018-Jan-03 11:00N 48°31' W 122°37'0 0.0
2018-Jan-03 10:30N 48°31' W 122°37'0 0.0
2018-Jan-03 10:00N 48°31' W 122°37'0 0.0
2018-Jan-03 09:30N 48°31' W 122°37'0 0.0
2018-Jan-03 09:00N 48°31' W 122°37'0 0.0
2018-Jan-03 08:30N 48°31' W 122°37'0 0.0
2018-Jan-03 08:00N 48°31' W 122°37'0 0.0
2018-Jan-03 07:30N 48°31' W 122°37'0 0.0
2018-Jan-03 07:00N 48°31' W 122°37'0 0.0
2018-Jan-03 06:30N 48°31' W 122°37'0 0.0
2018-Jan-03 06:00N 48°31' W 122°37'0 0.0
2018-Jan-03 05:30N 48°31' W 122°37'0 0.0
2018-Jan-03 05:00N 48°31' W 122°37'0 0.0
2018-Jan-03 04:30N 48°31' W 122°37'0 0.0
2018-Jan-03 04:00N 48°31' W 122°37'0 0.0
2018-Jan-03 03:30N 48°31' W 122°37'0 0.0
2018-Jan-03 03:00N 48°31' W 122°37'0 0.0
2018-Jan-03 02:30N 48°31' W 122°37'0 0.0
2018-Jan-03 02:00N 48°31' W 122°37'0 0.0
2018-Jan-03 01:30N 48°31' W 122°37'0 0.0
2018-Jan-03 01:00N 48°31' W 122°37'0 0.0
2018-Jan-03 00:30N 48°31' W 122°37'0 0.0
2018-Jan-03 00:00N 48°31' W 122°37'0 0.0
2018-Jan-02 23:30N 48°31' W 122°37'0 0.0
2018-Jan-02 23:00N 48°31' W 122°37'0 0.0
2018-Jan-02 22:30N 48°31' W 122°37'0 0.0
2018-Jan-02 22:00N 48°31' W 122°37'0 0.0
2018-Jan-02 21:30N 48°31' W 122°37'0 0.0
2018-Jan-02 21:00N 48°31' W 122°37'0 0.0
2018-Jan-02 20:30N 48°31' W 122°37'0 0.0
2018-Jan-02 20:00N 48°31' W 122°37'0 0.0
2018-Jan-02 19:30N 48°31' W 122°37'0 0.0
2018-Jan-02 19:00N 48°31' W 122°37'0 0.0
2018-Jan-02 18:30N 48°31' W 122°37'0 0.0
2018-Jan-02 18:00N 48°31' W 122°37'0 0.0
2018-Jan-02 17:30N 48°31' W 122°37'0 0.0
2018-Jan-02 17:00N 48°31' W 122°37'0 0.0
2018-Jan-02 16:30N 48°31' W 122°37'0 0.0
2018-Jan-02 16:00N 48°31' W 122°37'0 0.0
2018-Jan-02 15:30N 48°31' W 122°37'0 0.0
2018-Jan-02 15:00N 48°31' W 122°37'0 0.0
2018-Jan-02 14:30N 48°31' W 122°37'0 0.0
2018-Jan-02 14:00N 48°31' W 122°37'0 0.0
2018-Jan-02 13:30N 48°31' W 122°37'0 0.0
2018-Jan-02 13:00N 48°31' W 122°37'0 0.0
2018-Jan-02 12:30N 48°31' W 122°37'0 0.0
2018-Jan-02 12:00N 48°31' W 122°37'0 0.0
2018-Jan-02 11:30N 48°31' W 122°37'0 0.0
2018-Jan-02 11:00N 48°31' W 122°37'0 0.0
2018-Jan-02 10:30N 48°31' W 122°37'0 0.0
2018-Jan-02 10:00N 48°31' W 122°37'0 0.0
2018-Jan-02 09:31N 48°31' W 122°37'0 0.0
2018-Jan-02 08:30N 48°31' W 122°37'0 0.0
2018-Jan-02 08:00N 48°31' W 122°37'0 0.0
2018-Jan-02 07:30N 48°31' W 122°37'  

Dump ship's entire track history